• Join FlightAware (Why Join?)
  • Login
  • US Flag 
03:25AM EDT


 

Airport Tracker/Info


-or-


 

Live Flight TrackerFlight Track Log ✈ UAL1129 ✈ 15 de Sep de 2013 ✈ PANC - KSEA

Flight Track Log - Related Links

Times and Time Zones

All times are in EDT time to prevent confusion due to time zone crossing. See the UAL1129 flight status page for this flight to view local times or setup timezone preferences in your user account.

Time Position Orientation Groundspeed Altitude Reporting Facility
EDT Latitude Longitude Course Direction KTS MPH feet Rate Location/Type
09:12PM 61.0136 -149.3893 134° Southeast  Level Estimated
09:12PM 61.2000 -150.3167 131° Southeast 280 322 8,300  Level Anchorage Center
09:13PM 60.9595 -149.1877 132° Southeast  Level Estimated
09:13PM 61.1333 -150.2500 154° Southeast 290 334 11,100  Level Anchorage Center
09:14PM 60.8679 -149.0561 145° Southeast  Level FlightAware Approximate
09:14PM 61.0667 -150.1500 144° Southeast 330 380 12,800  Level Anchorage Center
09:15PM 60.7761 -148.9252 145° Southeast  Level FlightAware Approximate
09:15PM 60.9833 -150.0167 142° Southeast 350 403 15,400  Level Anchorage Center
09:16PM 60.7218 -148.7254 137° Southeast  Level Estimated
09:16PM 60.9000 -149.8833 142° Southeast 370 426 17,700  Level Anchorage Center
09:17PM 60.6672 -148.5262 135° Southeast  Level Estimated
09:17PM 60.8500 -149.7000 119° Southeast 370 426 19,800  Level Anchorage Center
09:18PM 60.6122 -148.3277 131° Southeast  Level Estimated
09:18PM 60.8000 -149.5167 119° Southeast 400 460 21,600  Level Anchorage Center
09:19PM 60.7500 -149.3167 117° Southeast 400 460 23,400 1,740 Climbing Anchorage Center
09:20PM 60.6833 -149.1167 124° Southeast 410 472 25,100 1,680 Climbing Anchorage Center
09:21PM 60.6333 -148.9000 115° Southeast 410 472 26,800 1,380 Climbing Anchorage Center
09:22PM 60.5667 -148.7000 124° Southeast 420 483 27,900 1,020 Climbing Anchorage Center
09:23PM 60.5000 -148.4833 122° Southeast 440 506 28,900 1,140 Climbing Anchorage Center
09:24PM 60.4333 -148.2500 120° Southeast 460 529 30,200 1,320 Climbing Anchorage Center
09:25PM 60.3667 -148.0333 122° Southeast 450 518 31,600 1,260 Climbing Anchorage Center
09:27PM 60.2500 -147.6333 120° Southeast 440 506 34,100 1,080 Climbing Anchorage Center
09:28PM 60.1833 -147.4333 124° Southeast 430 495 35,000 420 Climbing Anchorage Center
09:29PM 60.1167 -147.2167 122° Southeast 430 495 35,000  Level Anchorage Center
09:30PM 60.0500 -147.0167 124° Southeast 430 495 35,000  Level Anchorage Center
09:31PM 59.9833 -146.8167 124° Southeast 430 495 35,000  Level Anchorage Center
09:32PM 59.9333 -146.6000 115° Southeast 430 495 35,000  Level Anchorage Center
09:33PM 59.8667 -146.4000 124° Southeast 440 506 35,000  Level Anchorage Center
09:34PM 59.8000 -146.2000 123° Southeast 430 495 35,000  Level Anchorage Center
09:35PM 59.7333 -145.9833 121° Southeast 440 506 35,000  Level Anchorage Center
09:36PM 59.6500 -145.7833 129° Southeast 430 495 35,000  Level Anchorage Center
09:37PM 59.5833 -145.5833 123° Southeast 430 495 35,000  Level Anchorage Center
09:38PM 59.5167 -145.3833 123° Southeast 430 495 35,000  Level Anchorage Center
09:39PM 59.4500 -145.2000 126° Southeast 430 495 35,000  Level Anchorage Center
09:40PM 59.3833 -145.0000 123° Southeast 420 483 35,000  Level Anchorage Center
09:41PM 59.3167 -144.8167 125° Southeast 420 483 35,000  Level Anchorage Center
09:42PM 59.2500 -144.6167 123° Southeast 420 483 35,000  Level Anchorage Center
09:43PM 59.1833 -144.4333 125° Southeast 420 483 35,000  Level Anchorage Center
09:44PM 59.1333 -144.2500 118° Southeast 410 472 35,000  Level Anchorage Center
09:45PM 59.0500 -144.0500 129° Southeast 420 483 35,000  Level Anchorage Center
09:46PM 59.0000 -143.8667 118° Southeast 410 472 35,000  Level Anchorage Center
09:47PM 58.9167 -143.7000 134° Southeast 410 472 35,000  Level Anchorage Center
09:48PM 58.8667 -143.5167 118° Southeast 410 472 35,000  Level Anchorage Center
09:49PM 58.8000 -143.3333 125° Southeast 410 472 35,000  Level Anchorage Center
09:50PM 58.7333 -143.1500 125° Southeast 400 460 35,000  Level Anchorage Center
09:51PM 58.6667 -142.9833 128° Southeast 410 472 35,000  Level Anchorage Center
09:52PM 58.6000 -142.8000 125° Southeast 400 460 35,000  Level Anchorage Center
09:53PM 58.5333 -142.6333 127° Southeast 390 449 35,000  Level Anchorage Center
09:54PM 58.4667 -142.4667 127° Southeast 390 449 35,000  Level Anchorage Center
09:55PM 58.4000 -142.3000 127° Southeast 400 460 35,000  Level Anchorage Center
09:56PM 58.3333 -142.1333 127° Southeast 390 449 35,000  Level Anchorage Center
09:57PM 58.2667 -141.9667 127° Southeast 390 449 35,000  Level Anchorage Center
09:58PM 58.2000 -141.7833 125° Southeast 400 460 35,000  Level Anchorage Center
09:59PM 58.1333 -141.6167 127° Southeast 400 460 35,000  Level Anchorage Center
10:00PM 58.0667 -141.4500 127° Southeast 390 449 35,000  Level Anchorage Center
10:01PM 58.0000 -141.2833 127° Southeast 400 460 35,000  Level Anchorage Center
10:02PM 57.9333 -141.1167 127° Southeast 400 460 35,000  Level Anchorage Center
10:03PM 57.8667 -140.9500 127° Southeast 390 449 35,000  Level Anchorage Center
10:04PM 57.8000 -140.7833 127° Southeast 390 449 35,000  Level Anchorage Center
10:05PM 57.7333 -140.6333 130° Southeast 400 460 35,000  Level Anchorage Center
10:06PM 57.6667 -140.4667 127° Southeast 390 449 35,000  Level Anchorage Center
10:07PM 57.6000 -140.3000 127° Southeast 390 449 35,000  Level Anchorage Center
10:08PM 57.5333 -140.1500 130° Southeast 390 449 35,000  Level Anchorage Center
10:09PM 57.4667 -139.9833 127° Southeast 390 449 35,000  Level Anchorage Center
10:10PM 57.4000 -139.8167 127° Southeast 390 449 35,000  Level Anchorage Center
10:11PM 57.3333 -139.6667 129° Southeast 390 449 35,000  Level Anchorage Center
10:12PM 57.2667 -139.5000 126° Southeast 400 460 35,000  Level Anchorage Center
10:13PM 57.1833 -139.3500 136° Southeast 400 460 35,000  Level Anchorage Center
10:14PM 57.1333 -139.2000 122° Southeast 390 449 35,000  Level Anchorage Center
10:15PM 57.0667 -139.0500 129° Southeast 400 460 35,000  Level Anchorage Center
10:16PM 56.9833 -138.8833 133° Southeast 410 472 35,000  Level Anchorage Center
10:17PM 56.9167 -138.7333 129° Southeast 400 460 35,000  Level Anchorage Center
10:18PM 56.8500 -138.5667 126° Southeast 400 460 35,000  Level Anchorage Center
10:19PM 56.7667 -138.3833 130° Southeast 390 449 35,000  Level Anchorage Center
10:20PM 56.7000 -138.2333 129° Southeast 390 449 35,000  Level Anchorage Center
10:21PM 56.6167 -138.0833 135° Southeast 390 449 35,000  Level Anchorage Center
10:22PM 56.5500 -137.9333 129° Southeast 400 460 35,000  Level Anchorage Center
10:23PM 56.4833 -137.7833 129° Southeast 390 449 35,000  Level Anchorage Center
10:24PM 56.4167 -137.6333 129° Southeast 390 449 35,000  Level Anchorage Center
10:25PM 56.3500 -137.4833 129° Southeast 390 449 35,000  Level Anchorage Center
10:26PM 56.2667 -137.3333 135° Southeast 390 449 35,000  Level Anchorage Center
10:27PM 56.2000 -137.1833 129° Southeast 400 460 35,000  Level Anchorage Center
10:28PM 56.1333 -137.0333 129° Southeast 390 449 35,000  Level Anchorage Center
10:29PM 56.0500 -136.8833 135° Southeast 390 449 35,000  Level Anchorage Center
10:30PM 55.9833 -136.7333 128° Southeast 390 449 35,000  Level Anchorage Center
10:31PM 55.9167 -136.5833 128° Southeast 390 449 35,000  Level Anchorage Center
10:32PM 55.8500 -136.4500 132° Southeast 390 449 35,000  Level Anchorage Center
10:33PM 55.7667 -136.3000 135° Southeast 390 449 35,000  Level Anchorage Center
10:34PM 55.7000 -136.1500 128° Southeast 390 449 35,000  Level Anchorage Center
10:35PM 55.6333 -136.0000 128° Southeast 390 449 35,000  Level Anchorage Center
10:36PM 55.5500 -135.8667 138° Southeast 400 460 35,000  Level Anchorage Center
10:37PM 55.4833 -135.7167 128° Southeast 390 449 35,000  Level Anchorage Center
10:38PM 55.4000 -135.5667 134° Southeast 390 449 35,000  Level Anchorage Center
10:39PM 55.3333 -135.4333 131° Southeast 390 449 35,000  Level Anchorage Center
10:40PM 55.2667 -135.3000 131° Southeast 390 449 35,000  Level Anchorage Center
10:41PM 55.1833 -135.1500 134° Southeast 390 449 35,000  Level Anchorage Center
10:42PM 55.1167 -135.0167 131° Southeast 380 437 35,000  Level Anchorage Center
10:43PM 55.0500 -134.8833 131° Southeast 390 449 35,000  Level Anchorage Center
10:44PM 54.9667 -134.7333 134° Southeast 390 449 35,000  Level Anchorage Center
10:45PM 54.9000 -134.6000 131° Southeast 390 449 35,000  Level Anchorage Center
10:46PM 54.8167 -134.4667 137° Southeast 390 449 35,000  Level Anchorage Center
10:47PM 54.7500 -134.3167 128° Southeast 390 449 35,000  Level Anchorage Center
10:48PM 54.6667 -134.1833 137° Southeast 400 460 35,000  Level Anchorage Center
10:49PM 54.6000 -134.0500 131° Southeast 390 449 35,000  Level Anchorage Center
10:50PM 54.5167 -133.9167 137° Southeast 390 449 35,000  Level Anchorage Center
10:51PM 54.4500 -133.7833 131° Southeast 390 449 35,000  Level Anchorage Center
10:52PM 54.3833 -133.6500 131° Southeast 390 449 35,000  Level Anchorage Center
10:53PM 54.3000 -133.5167 137° Southeast 380 437 35,000  Level Anchorage Center
10:54PM 54.2333 -133.4000 134° Southeast 380 437 35,000  Level Anchorage Center
10:55PM 54.1667 -133.2500 127° Southeast 370 426 35,000  Level Anchorage Center
10:56PM 54.1000 -133.1333 134° Southeast 370 426 35,000  Level Anchorage Center
10:57PM 54.0167 -133.0000 137° Southeast 370 426 35,000  Level Anchorage Center
10:59PM 53.9333 -132.9167 150° Southeast 370 426 35,000  Level Vancouver Center
11:00PM 53.8500 -132.7833 137° Southeast 360 414 35,000  Level Vancouver Center
11:01PM 53.8000 -132.6500 122° Southeast 360 414 35,000  Level Vancouver Center
11:02PM 53.7167 -132.5500 145° Southeast 350 403 35,000  Level Vancouver Center
11:03PM 53.6667 -132.4333 126° Southeast 350 403 35,000  Level Vancouver Center
11:04PM 53.5833 -132.3000 136° Southeast 350 403 35,000  Level Vancouver Center
11:05PM 53.5167 -132.2000 138° Southeast 350 403 35,000  Level Vancouver Center
11:06PM 53.4500 -132.0833 134° Southeast 350 403 35,000  Level Vancouver Center
11:07PM 53.3667 -131.9500 136° Southeast 350 403 35,000  Level Vancouver Center
11:08PM 53.3167 -131.8500 130° Southeast 350 403 35,000  Level Vancouver Center
11:09PM 53.2333 -131.7333 140° Southeast 360 414 35,000 -240 Level Vancouver Center
11:10PM 53.1833 -131.6000 122° Southeast 360 414 34,600 -780 Descending Vancouver Center
11:11PM 53.1000 -131.4833 140° Southeast 340 391 33,500 -840 Descending Vancouver Center
11:12PM 53.0333 -131.3833 138° Southeast 340 391 33,000 -300 Descending Vancouver Center
11:13PM 52.9667 -131.2667 133° Southeast 350 403 33,000  Level Vancouver Center
11:14PM 52.9000 -131.1667 138° Southeast 350 403 33,000  Level Vancouver Center
11:15PM 52.8333 -131.0500 133° Southeast 350 403 33,000  Level Vancouver Center
11:16PM 52.7500 -130.9167 136° Southeast 350 403 33,000  Level Vancouver Center
11:17PM 52.6833 -130.8333 143° Southeast 360 414 33,000  Level Vancouver Center
11:18PM 52.6167 -130.7000 129° Southeast 350 403 33,000  Level Vancouver Center
11:19PM 52.5500 -130.5833 133° Southeast 360 414 33,000  Level Vancouver Center
11:20PM 52.4833 -130.4667 133° Southeast 360 414 33,000  Level Vancouver Center
11:21PM 52.4000 -130.3667 144° Southeast 360 414 33,000  Level Vancouver Center
11:22PM 52.3333 -130.2500 133° Southeast 360 414 33,000  Level Vancouver Center
11:23PM 52.2667 -130.1333 133° Southeast 360 414 33,000  Level Vancouver Center
11:24PM 52.1833 -130.0167 139° Southeast 360 414 33,000  Level Vancouver Center
11:25PM 52.1000 -129.8833 135° Southeast 370 426 33,000  Level Vancouver Center
11:26PM 52.0500 -129.8000 134° Southeast 370 426 33,000  Level Vancouver Center
11:27PM 51.9667 -129.6500 132° Southeast 370 426 33,000  Level Vancouver Center
11:28PM 51.9000 -129.5167 129° Southeast 370 426 33,000  Level Vancouver Center
11:29PM 51.8500 -129.4000 125° Southeast 370 426 33,000  Level Vancouver Center
11:30PM 51.7833 -129.2500 126° Southeast 370 426 33,000  Level Vancouver Center
11:31PM 51.7167 -129.1167 129° Southeast 370 426 33,000  Level Vancouver Center
11:32PM 51.6667 -129.0000 125° Southeast 380 437 33,000  Level Vancouver Center
11:33PM 51.5833 -128.8500 132° Southeast 380 437 33,000  Level Vancouver Center
11:34PM 51.5167 -128.7167 129° Southeast 370 426 33,000  Level Vancouver Center
11:35PM 51.4667 -128.6000 124° Southeast 370 426 33,000  Level Vancouver Center
11:36PM 51.4000 -128.4500 125° Southeast 370 426 33,000  Level Vancouver Center
11:37PM 51.3333 -128.3500 137° Southeast 370 426 33,000  Level Vancouver Center
11:38PM 51.2833 -128.2000 118° Southeast 370 426 33,000  Level Vancouver Center
11:39PM 51.2167 -128.0667 129° Southeast 370 426 33,000  Level Vancouver Center
11:40PM 51.1333 -127.9167 131° Southeast 380 437 33,000  Level Vancouver Center
11:41PM 51.0667 -127.8167 137° Southeast 380 437 33,000  Level Vancouver Center
11:42PM 51.0167 -127.6667 118° Southeast 380 437 33,000  Level Vancouver Center
11:43PM 50.9500 -127.5333 128° Southeast 380 437 33,000  Level Vancouver Center
11:44PM 50.8833 -127.4333 137° Southeast 380 437 33,000  Level Vancouver Center
11:45PM 50.8000 -127.2833 131° Southeast 380 437 33,000  Level Vancouver Center
11:46PM 50.7500 -127.1500 121° Southeast 390 449 33,000  Level Vancouver Center
11:47PM 50.6667 -127.0167 135° Southeast 390 449 33,000  Level Vancouver Center
11:48PM 50.6000 -126.9000 132° Southeast 380 437 33,000  Level Vancouver Center
11:49PM 50.5333 -126.7667 128° Southeast 380 437 33,000  Level Vancouver Center
11:50PM 50.4667 -126.6333 128° Southeast 380 437 33,000  Level Vancouver Center
11:51PM 50.4167 -126.5000 120° Southeast 380 437 33,000  Level Vancouver Center
11:52PM 50.3333 -126.3667 134° Southeast 380 437 33,000  Level Vancouver Center
11:53PM 50.2667 -126.2500 132° Southeast 380 437 33,000  Level Vancouver Center
11:54PM 50.2000 -126.1167 128° Southeast 370 426 33,000  Level Vancouver Center
11:55PM 50.1333 -126.0167 136° Southeast 370 426 33,000  Level Vancouver Center
11:56PM 50.0667 -125.8833 128° Southeast 370 426 33,000  Level Vancouver Center
11:57PM 50.0000 -125.7667 132° Southeast 370 426 33,000  Level Vancouver Center
11:58PM 49.9500 -125.6333 120° Southeast 370 426 33,000  Level Vancouver Center
11:59PM 49.8833 -125.5167 132° Southeast 370 426 33,000 -120 Level Vancouver Center
12:00AM 49.8000 -125.4000 138° Southeast 370 426 32,800 -660 Descending Vancouver Center
12:01AM 49.7500 -125.2667 120° Southeast 360 414 31,700 -1,020 Descending Vancouver Center
12:02AM 49.6833 -125.1667 136° Southeast 370 426 30,800 -900 Descending Vancouver Center
12:03AM 49.6000 -125.0333 134° Southeast 370 426 29,900 -300 Descending Vancouver Center
12:09AM 49.1604 -124.2230 134° Southeast 395 455 29,000 -120 Descending FlightAware ADS-B
12:10AM 49.0541 -124.0400 132° Southeast 399 459 29,000  Level FlightAware ADS-B
12:11AM 49.0159 -123.9750 132° Southeast 402 463 29,000  Level FlightAware ADS-B
12:11AM 48.9786 -123.9110 132° Southeast 404 465 29,000  Level FlightAware ADS-B
12:12AM 48.8918 -123.7630 132° Southeast 408 470 29,000  Level FlightAware ADS-B
12:13AM 48.8524 -123.6950 131° Southeast 408 470 29,000  Level FlightAware ADS-B
12:14AM 48.8143 -123.6310 132° Southeast 409 471 29,000 -720 Level FlightAware ADS-B
12:15AM 48.7262 -123.4890 133° Southeast 409 471 27,900 -1,260 Descending FlightAware ADS-B
12:15AM 48.7106 -123.4710 143° Southeast 410 472 27,400 -3,180 Descending FlightAware ADS-B
12:15AM 48.6943 -123.4540 145° Southeast 412 474 26,800 -3,120 Descending FlightAware ADS-B
12:16AM 48.6455 -123.4080 148° Southeast 414 476 25,300 -2,400 Descending FlightAware ADS-B
12:17AM 48.5213 -123.2930 148° Southeast 372 428 22,500 -2,040 Descending FlightAware ADS-B
12:17AM 48.4781 -123.2530 148° Southeast 353 406 21,600 -1,680 Descending FlightAware ADS-B
12:18AM 48.4368 -123.2150 149° Southeast 341 392 20,800 -1,620 Descending FlightAware ADS-B
12:19AM 48.3462 -123.1310 148° Southeast 327 376 18,900 -1,680 Descending FlightAware ADS-B
12:19AM 48.3078 -123.0950 148° Southeast 321 369 18,100 -1,560 Descending FlightAware ADS-B
12:20AM 48.3014 -123.0900 153° Southeast 321 369 18,000 -1,380 Descending FlightAware ADS-B
12:20AM 48.2967 -123.0870 157° South 319 367 17,900 -1,500 Descending FlightAware ADS-B
12:20AM 48.2904 -123.0840 162° South 316 364 17,800 -1,680 Descending FlightAware ADS-B
12:20AM 48.2814 -123.0820 172° South 312 359 17,600 -660 Descending FlightAware ADS-B
12:21AM 48.1690 -123.0790 179° South 308 354 16,900 -780 Descending FlightAware ADS-B
12:22AM 48.1279 -123.0780 179° South 312 359 16,200 -1,380 Descending FlightAware ADS-B
12:22AM 48.1164 -123.0780 180° South 311 358 16,100 -480 Descending FlightAware ADS-B
12:22AM 48.1092 -123.0770 175° South 309 356 16,100  Level FlightAware ADS-B
12:22AM 48.1048 -123.0750 163° South 309 356 16,100  Level FlightAware ADS-B
12:22AM 48.0996 -123.0720 159° South 311 358 16,100  Level FlightAware ADS-B
12:22AM 48.0942 -123.0690 160° South 314 361 16,100 -600 Level FlightAware ADS-B
12:22AM 48.0877 -123.0630 148° Southeast 316 364 16,000 -720 Descending FlightAware ADS-B
12:22AM 48.0831 -123.0580 144° Southeast 319 367 16,000 -1,860 Level FlightAware ADS-B
12:23AM 48.0470 -122.9090 110° East 341 392 13,800 -1,920 Descending FlightAware ADS-B
12:24AM 48.0428 -122.8790 102° East 338 389 13,400 -1,920 Descending FlightAware ADS-B
12:24AM 48.0403 -122.8660 106° East 335 386 13,200 -2,340 Descending FlightAware ADS-B
12:24AM 48.0359 -122.8490 111° Southeast 332 382 12,900 -2,580 Descending FlightAware ADS-B
12:24AM 48.0313 -122.8360 118° Southeast 329 379 12,600 -1,620 Descending FlightAware ADS-B
12:24AM 48.0256 -122.8220 121° Southeast 326 375 12,500 -1,560 Descending FlightAware ADS-B
12:26AM 47.9287 -122.7080 142° Southeast 311 358 10,100 -1,320 Descending FlightAware ADS-B
12:26AM 47.8896 -122.6790 154° Southeast 292 336 10,000 -540 Descending FlightAware ADS-B
12:26AM 47.8709 -122.6660 155° Southeast 290 334 9,700 -1,560 Descending FlightAware ADS-B
12:26AM 47.8569 -122.6560 154° Southeast 292 336 9,300 -1,800 Descending FlightAware ADS-B
12:27AM 47.8503 -122.6510 153° Southeast 289 333 9,200 -1,020 Descending FlightAware ADS-B
12:28AM 47.7652 -122.6420 176° South 268 308 8,100 -840 Descending FlightAware ADS-B
12:28AM 47.7465 -122.6420 180° South 264 304 8,100  Level FlightAware ADS-B
12:28AM 47.7283 -122.6410 178° South 258 297 8,100  Level FlightAware ADS-B
12:28AM 47.7159 -122.6400 177° South 255 293 8,100  Level FlightAware ADS-B
12:29AM 47.7005 -122.6400 180° South 253 291 8,100  Level FlightAware ADS-B
12:30AM 47.6163 -122.6090 166° South 255 293 8,100  Level FlightAware ADS-B
12:30AM 47.6009 -122.5950 148° Southeast 254 292 8,100  Level FlightAware ADS-B
12:30AM 47.5941 -122.5880 145° Southeast 252 290 8,100 -720 Level FlightAware ADS-B
12:30AM 47.5861 -122.5750 132° Southeast 250 288 7,900 -960 Descending FlightAware ADS-B
12:30AM 47.5844 -122.5700 117° Southeast 252 290 7,900 -780 Level FlightAware ADS-B
12:31AM 47.5820 -122.5610 112° Southeast 253 291 7,800 -1,200 Descending FlightAware ADS-B
12:31AM 47.5808 -122.5530 103° East 256 295 7,700 -1,200 Descending FlightAware ADS-B
12:31AM 47.5806 -122.5450 92° East 257 296 7,600 -780 Descending FlightAware ADS-B
12:31AM 47.5808 -122.5400 87° East 258 297 7,600 -1,020 Level FlightAware ADS-B
12:31AM 47.5816 -122.5330 80° East 259 298 7,500 -1,500 Descending FlightAware ADS-B
12:31AM 47.5834 -122.5250 72° East 260 299 7,400 -660 Descending FlightAware ADS-B
12:32AM 47.6527 -122.4920 18° North 229 264 6,700 -600 Descending FlightAware ADS-B
12:32AM 47.6693 -122.4930 358° North 220 253 6,600 -780 Descending FlightAware ADS-B
12:33AM 47.6850 -122.4940 358° North 219 252 6,300 -1,200 Descending FlightAware ADS-B
12:33AM 47.7108 -122.4950 359° North 219 252 5,800 -780 Descending FlightAware ADS-B
12:34AM 47.7840 -122.4960 359° North 216 249 5,100 -600 Descending FlightAware ADS-B
12:34AM 47.7879 -122.4960 360° North 215 247 5,100  Level FlightAware ADS-B
12:34AM 47.7914 -122.4950 11° North 215 247 5,100 -900 Level FlightAware ADS-B
12:34AM 47.7945 -122.4930 23° Northeast 215 247 5,000 -1,020 Descending FlightAware ADS-B
12:34AM 47.7976 -122.4910 23° Northeast 215 247 5,000 -900 Level FlightAware ADS-B
12:34AM 47.8003 -122.4890 26° Northeast 214 246 4,900 -1,740 Descending FlightAware ADS-B
12:35AM 47.8032 -122.4850 43° Northeast 213 245 4,800 -1,200 Descending FlightAware ADS-B
12:35AM 47.8072 -122.4770 53° Northeast 212 244 4,700 -600 Descending FlightAware ADS-B
12:35AM 47.8087 -122.4720 66° East 211 243 4,700 -780 Level FlightAware ADS-B
12:35AM 47.8098 -122.4670 72° East 209 241 4,600 -1,500 Descending FlightAware ADS-B
12:35AM 47.8102 -122.4610 84° East 208 239 4,500 -780 Descending FlightAware ADS-B
12:35AM 47.8100 -122.4560 93° East 206 237 4,500 -900 Level FlightAware ADS-B
12:35AM 47.8093 -122.4510 102° East 206 237 4,400 -1,740 Descending FlightAware ADS-B
12:35AM 47.8083 -122.4460 107° East 204 235 4,300 -780 Descending FlightAware ADS-B
12:35AM 47.8067 -122.4400 112° Southeast 204 235 4,300 -180 Level FlightAware ADS-B
12:36AM 47.7719 -122.3520 120° Southeast 194 223 4,100 -180 Descending FlightAware ADS-B
12:37AM 47.7610 -122.3400 143° Southeast 197 227 4,100  Level FlightAware ADS-B
12:37AM 47.7498 -122.3280 144° Southeast 196 226 4,100  Level FlightAware ADS-B
12:37AM 47.7467 -122.3250 147° Southeast 195 224 4,100  Level FlightAware ADS-B
12:37AM 47.7436 -122.3230 157° South 193 222 4,100  Level FlightAware ADS-B
12:37AM 47.7403 -122.3210 158° South 191 220 4,100  Level FlightAware ADS-B
12:37AM 47.7375 -122.3210 180° South 190 219 4,100  Level FlightAware ADS-B
12:37AM 47.7334 -122.3200 171° South 188 216 4,100  Level FlightAware ADS-B
12:37AM 47.7241 -122.3180 172° South 188 216 4,100  Level FlightAware ADS-B
12:39AM 47.6643 -122.3160 179° South 187 215 4,100  Level FlightAware ADS-B
12:39AM 47.6552 -122.3160 180° South 187 215 4,100 -600 Level FlightAware ADS-B
12:39AM 47.6457 -122.3160 180° South 192 221 3,900 -1,020 Descending FlightAware ADS-B
12:39AM 47.6394 -122.3160 180° South 193 222 3,800 -1,140 Descending FlightAware ADS-B
12:39AM 47.6311 -122.3160 180° South 194 223 3,600 -900 Descending FlightAware ADS-B
12:39AM 47.6213 -122.3160 180° South 192 221 3,500 -900 Descending FlightAware ADS-B
12:40AM 47.6080 -122.3170 183° South 189 217 3,200 -960 Descending FlightAware ADS-B
12:41AM 47.5532 -122.3170 180° South 166 191 2,200 -960 Descending FlightAware ADS-B
12:41AM 47.5430 -122.3170 180° South 162 186 2,000 -780 Descending FlightAware ADS-B
12:41AM 47.5354 -122.3170 180° South 156 180 1,900 -840 Descending FlightAware ADS-B
12:41AM 47.5279 -122.3170 180° South 146 168 1,700 -780 Descending FlightAware ADS-B
12:41AM 47.5189 -122.3170 180° South 137 158 1,600 -660 Descending FlightAware ADS-B
12:42AM 47.5094 -122.3170 180° South 135 155 1,400 -780 Descending FlightAware ADS-B
12:43AM 47.4833 -122.3178 180° South 135 155 800 -840 Descending Seattle Center
12:43AM 47.4683 -122.3183 181° South 131 151 500 -420 Descending Seattle Center
12:44AM 47.4461 -122.3183 180° South 137 158 400 -180 Descending Seattle Center